sensor_id;sensor_type;location;lat;lon;timestamp;P1;durP1;ratioP1;P2;durP2;ratioP2
9508;SDS011;4792;50.088;8.122;2023-04-21T00:01:41;27.57;;;20.60;;
9508;SDS011;4792;50.088;8.122;2023-04-21T00:04:09;25.07;;;19.57;;
9508;SDS011;4792;50.088;8.122;2023-04-21T00:06:42;24.73;;;20.40;;
9508;SDS011;4792;50.088;8.122;2023-04-21T00:09:10;25.07;;;19.73;;
9508;SDS011;4792;50.088;8.122;2023-04-21T00:11:38;27.40;;;20.57;;
9508;SDS011;4792;50.088;8.122;2023-04-21T00:14:06;26.60;;;19.73;;
9508;SDS011;4792;50.088;8.122;2023-04-21T00:16:34;26.50;;;20.07;;
9508;SDS011;4792;50.088;8.122;2023-04-21T00:19:02;32.83;;;20.57;;
9508;SDS011;4792;50.088;8.122;2023-04-21T00:21:32;27.77;;;21.13;;
9508;SDS011;4792;50.088;8.122;2023-04-21T00:24:01;26.13;;;20.53;;
9508;SDS011;4792;50.088;8.122;2023-04-21T00:26:29;26.83;;;20.70;;
9508;SDS011;4792;50.088;8.122;2023-04-21T00:28:57;27.30;;;19.77;;
9508;SDS011;4792;50.088;8.122;2023-04-21T00:31:25;27.70;;;20.50;;
9508;SDS011;4792;50.088;8.122;2023-04-21T00:33:53;28.23;;;19.53;;
9508;SDS011;4792;50.088;8.122;2023-04-21T00:36:21;27.23;;;20.17;;
9508;SDS011;4792;50.088;8.122;2023-04-21T00:38:50;26.43;;;20.67;;
9508;SDS011;4792;50.088;8.122;2023-04-21T00:41:19;28.53;;;22.03;;
9508;SDS011;4792;50.088;8.122;2023-04-21T00:43:59;27.83;;;20.53;;
9508;SDS011;4792;50.088;8.122;2023-04-21T00:46:27;28.27;;;20.97;;
9508;SDS011;4792;50.088;8.122;2023-04-21T00:48:55;28.97;;;21.17;;
9508;SDS011;4792;50.088;8.122;2023-04-21T00:51:23;28.73;;;20.97;;
9508;SDS011;4792;50.088;8.122;2023-04-21T00:53:51;27.90;;;21.27;;
9508;SDS011;4792;50.088;8.122;2023-04-21T00:56:20;26.93;;;20.20;;
9508;SDS011;4792;50.088;8.122;2023-04-21T00:58:48;29.13;;;22.00;;
9508;SDS011;4792;50.088;8.122;2023-04-21T01:01:16;30.47;;;21.80;;
9508;SDS011;4792;50.088;8.122;2023-04-21T01:03:44;31.50;;;21.20;;
9508;SDS011;4792;50.088;8.122;2023-04-21T01:06:13;28.60;;;21.40;;
9508;SDS011;4792;50.088;8.122;2023-04-21T01:08:41;27.17;;;20.57;;
9508;SDS011;4792;50.088;8.122;2023-04-21T01:11:09;30.03;;;20.57;;
9508;SDS011;4792;50.088;8.122;2023-04-21T01:13:39;29.80;;;21.77;;
9508;SDS011;4792;50.088;8.122;2023-04-21T01:16:07;30.00;;;21.90;;
9508;SDS011;4792;50.088;8.122;2023-04-21T01:18:35;30.73;;;21.70;;
9508;SDS011;4792;50.088;8.122;2023-04-21T01:21:03;28.67;;;20.53;;
9508;SDS011;4792;50.088;8.122;2023-04-21T01:23:34;28.07;;;20.60;;
9508;SDS011;4792;50.088;8.122;2023-04-21T01:26:02;28.50;;;21.03;;
9508;SDS011;4792;50.088;8.122;2023-04-21T01:28:30;30.30;;;20.23;;
9508;SDS011;4792;50.088;8.122;2023-04-21T01:30:58;28.73;;;20.43;;
9508;SDS011;4792;50.088;8.122;2023-04-21T01:33:26;28.30;;;20.13;;
9508;SDS011;4792;50.088;8.122;2023-04-21T01:35:54;31.03;;;21.13;;
9508;SDS011;4792;50.088;8.122;2023-04-21T01:38:22;27.33;;;19.40;;
9508;SDS011;4792;50.088;8.122;2023-04-21T01:40:53;27.33;;;19.17;;
9508;SDS011;4792;50.088;8.122;2023-04-21T01:43:21;27.60;;;19.93;;
9508;SDS011;4792;50.088;8.122;2023-04-21T01:45:51;27.77;;;20.13;;
9508;SDS011;4792;50.088;8.122;2023-04-21T01:48:19;24.37;;;18.20;;
9508;SDS011;4792;50.088;8.122;2023-04-21T01:50:47;27.17;;;19.77;;
9508;SDS011;4792;50.088;8.122;2023-04-21T01:53:15;25.63;;;18.30;;
9508;SDS011;4792;50.088;8.122;2023-04-21T01:55:42;26.40;;;19.87;;
9508;SDS011;4792;50.088;8.122;2023-04-21T01:58:11;26.40;;;19.27;;
9508;SDS011;4792;50.088;8.122;2023-04-21T02:00:39;24.93;;;18.37;;
9508;SDS011;4792;50.088;8.122;2023-04-21T02:03:07;28.00;;;20.30;;
9508;SDS011;4792;50.088;8.122;2023-04-21T02:05:35;28.43;;;19.20;;
9508;SDS011;4792;50.088;8.122;2023-04-21T02:08:04;26.77;;;19.03;;
9508;SDS011;4792;50.088;8.122;2023-04-21T02:10:32;25.40;;;18.03;;
9508;SDS011;4792;50.088;8.122;2023-04-21T02:13:00;26.60;;;19.60;;
9508;SDS011;4792;50.088;8.122;2023-04-21T02:15:29;26.67;;;19.40;;
9508;SDS011;4792;50.088;8.122;2023-04-21T02:17:57;27.13;;;19.23;;
9508;SDS011;4792;50.088;8.122;2023-04-21T02:20:25;24.70;;;18.43;;
9508;SDS011;4792;50.088;8.122;2023-04-21T02:22:53;24.97;;;18.37;;
9508;SDS011;4792;50.088;8.122;2023-04-21T02:25:21;25.93;;;17.80;;
9508;SDS011;4792;50.088;8.122;2023-04-21T02:27:49;26.40;;;19.13;;
9508;SDS011;4792;50.088;8.122;2023-04-21T02:30:17;27.67;;;18.80;;
9508;SDS011;4792;50.088;8.122;2023-04-21T02:32:47;23.40;;;17.53;;
9508;SDS011;4792;50.088;8.122;2023-04-21T02:35:15;27.10;;;19.33;;
9508;SDS011;4792;50.088;8.122;2023-04-21T02:37:43;24.70;;;18.70;;
9508;SDS011;4792;50.088;8.122;2023-04-21T02:40:11;24.93;;;18.07;;
9508;SDS011;4792;50.088;8.122;2023-04-21T02:42:39;24.10;;;17.50;;
9508;SDS011;4792;50.088;8.122;2023-04-21T02:45:13;26.53;;;18.93;;
9508;SDS011;4792;50.088;8.122;2023-04-21T02:47:41;23.10;;;17.57;;
9508;SDS011;4792;50.088;8.122;2023-04-21T02:50:10;25.23;;;17.80;;
9508;SDS011;4792;50.088;8.122;2023-04-21T02:52:39;25.17;;;18.23;;
9508;SDS011;4792;50.088;8.122;2023-04-21T02:55:07;27.07;;;18.87;;
9508;SDS011;4792;50.088;8.122;2023-04-21T02:57:35;24.03;;;17.53;;
9508;SDS011;4792;50.088;8.122;2023-04-21T03:00:03;21.53;;;15.90;;
9508;SDS011;4792;50.088;8.122;2023-04-21T03:02:33;25.37;;;18.70;;
9508;SDS011;4792;50.088;8.122;2023-04-21T03:05:01;26.23;;;17.83;;
9508;SDS011;4792;50.088;8.122;2023-04-21T03:07:30;23.03;;;17.63;;
9508;SDS011;4792;50.088;8.122;2023-04-21T03:09:58;23.80;;;16.77;;
9508;SDS011;4792;50.088;8.122;2023-04-21T03:12:26;23.77;;;16.57;;
9508;SDS011;4792;50.088;8.122;2023-04-21T03:14:54;23.37;;;17.60;;
9508;SDS011;4792;50.088;8.122;2023-04-21T03:17:22;25.07;;;17.03;;
9508;SDS011;4792;50.088;8.122;2023-04-21T03:19:49;21.50;;;16.53;;
9508;SDS011;4792;50.088;8.122;2023-04-21T03:22:17;26.30;;;17.17;;
9508;SDS011;4792;50.088;8.122;2023-04-21T03:24:46;21.03;;;16.07;;
9508;SDS011;4792;50.088;8.122;2023-04-21T03:27:14;25.07;;;18.13;;
9508;SDS011;4792;50.088;8.122;2023-04-21T03:29:42;23.20;;;17.80;;
9508;SDS011;4792;50.088;8.122;2023-04-21T03:32:10;22.20;;;16.87;;
9508;SDS011;4792;50.088;8.122;2023-04-21T03:34:38;20.63;;;16.43;;
9508;SDS011;4792;50.088;8.122;2023-04-21T03:37:06;25.00;;;17.50;;
9508;SDS011;4792;50.088;8.122;2023-04-21T03:39:34;24.43;;;18.00;;
9508;SDS011;4792;50.088;8.122;2023-04-21T03:42:03;25.80;;;18.43;;
9508;SDS011;4792;50.088;8.122;2023-04-21T03:44:31;25.93;;;17.63;;
9508;SDS011;4792;50.088;8.122;2023-04-21T03:46:58;23.30;;;18.17;;
9508;SDS011;4792;50.088;8.122;2023-04-21T03:49:28;24.77;;;17.57;;
9508;SDS011;4792;50.088;8.122;2023-04-21T03:51:56;25.90;;;17.63;;
9508;SDS011;4792;50.088;8.122;2023-04-21T03:54:24;27.50;;;17.87;;
9508;SDS011;4792;50.088;8.122;2023-04-21T03:56:52;22.20;;;16.87;;
9508;SDS011;4792;50.088;8.122;2023-04-21T03:59:22;24.93;;;18.13;;
9508;SDS011;4792;50.088;8.122;2023-04-21T04:01:49;24.53;;;18.00;;
9508;SDS011;4792;50.088;8.122;2023-04-21T04:04:17;27.40;;;18.83;;
9508;SDS011;4792;50.088;8.122;2023-04-21T04:06:46;28.03;;;18.23;;
9508;SDS011;4792;50.088;8.122;2023-04-21T04:09:13;24.10;;;17.70;;
9508;SDS011;4792;50.088;8.122;2023-04-21T04:11:41;27.53;;;19.40;;
9508;SDS011;4792;50.088;8.122;2023-04-21T04:14:09;26.33;;;18.63;;
9508;SDS011;4792;50.088;8.122;2023-04-21T04:16:38;25.70;;;18.27;;
9508;SDS011;4792;50.088;8.122;2023-04-21T04:19:06;27.40;;;19.07;;
9508;SDS011;4792;50.088;8.122;2023-04-21T04:21:34;26.73;;;19.63;;
9508;SDS011;4792;50.088;8.122;2023-04-21T04:24:02;25.77;;;18.37;;
9508;SDS011;4792;50.088;8.122;2023-04-21T04:26:31;24.03;;;18.13;;
9508;SDS011;4792;50.088;8.122;2023-04-21T04:29:00;28.37;;;19.00;;
9508;SDS011;4792;50.088;8.122;2023-04-21T04:31:29;25.83;;;18.40;;
9508;SDS011;4792;50.088;8.122;2023-04-21T04:33:59;26.27;;;18.40;;
9508;SDS011;4792;50.088;8.122;2023-04-21T04:36:27;29.37;;;19.77;;
9508;SDS011;4792;50.088;8.122;2023-04-21T04:38:56;27.13;;;18.73;;
9508;SDS011;4792;50.088;8.122;2023-04-21T04:41:24;29.80;;;19.83;;
9508;SDS011;4792;50.088;8.122;2023-04-21T04:43:52;30.60;;;20.23;;
9508;SDS011;4792;50.088;8.122;2023-04-21T04:46:25;26.67;;;18.67;;
9508;SDS011;4792;50.088;8.122;2023-04-21T04:48:53;26.37;;;18.40;;
9508;SDS011;4792;50.088;8.122;2023-04-21T04:51:23;25.63;;;17.80;;
9508;SDS011;4792;50.088;8.122;2023-04-21T04:53:50;27.97;;;18.27;;
9508;SDS011;4792;50.088;8.122;2023-04-21T04:56:18;27.43;;;17.97;;
9508;SDS011;4792;50.088;8.122;2023-04-21T04:58:47;28.37;;;19.10;;
9508;SDS011;4792;50.088;8.122;2023-04-21T05:01:15;26.57;;;17.77;;
9508;SDS011;4792;50.088;8.122;2023-04-21T05:03:43;25.00;;;17.70;;
9508;SDS011;4792;50.088;8.122;2023-04-21T05:06:12;24.23;;;17.07;;
9508;SDS011;4792;50.088;8.122;2023-04-21T05:08:41;22.53;;;16.23;;
9508;SDS011;4792;50.088;8.122;2023-04-21T05:11:09;23.53;;;17.40;;
9508;SDS011;4792;50.088;8.122;2023-04-21T05:13:37;24.77;;;18.00;;
9508;SDS011;4792;50.088;8.122;2023-04-21T05:16:06;26.47;;;17.43;;
9508;SDS011;4792;50.088;8.122;2023-04-21T05:18:35;28.77;;;17.63;;
9508;SDS011;4792;50.088;8.122;2023-04-21T05:21:03;24.43;;;17.10;;
9508;SDS011;4792;50.088;8.122;2023-04-21T05:23:31;26.23;;;17.30;;
9508;SDS011;4792;50.088;8.122;2023-04-21T05:26:00;26.47;;;17.80;;
9508;SDS011;4792;50.088;8.122;2023-04-21T05:28:30;29.57;;;18.77;;
9508;SDS011;4792;50.088;8.122;2023-04-21T05:30:58;24.17;;;16.70;;
9508;SDS011;4792;50.088;8.122;2023-04-21T05:33:25;24.37;;;17.50;;
9508;SDS011;4792;50.088;8.122;2023-04-21T05:35:56;25.63;;;16.93;;
9508;SDS011;4792;50.088;8.122;2023-04-21T05:38:24;23.70;;;16.60;;
9508;SDS011;4792;50.088;8.122;2023-04-21T05:40:53;27.23;;;16.77;;
9508;SDS011;4792;50.088;8.122;2023-04-21T05:43:22;22.43;;;15.60;;
9508;SDS011;4792;50.088;8.122;2023-04-21T05:45:50;24.23;;;16.57;;
9508;SDS011;4792;50.088;8.122;2023-04-21T05:48:18;22.33;;;15.97;;
9508;SDS011;4792;50.088;8.122;2023-04-21T05:50:46;24.83;;;17.40;;
9508;SDS011;4792;50.088;8.122;2023-04-21T05:53:14;24.47;;;16.50;;
9508;SDS011;4792;50.088;8.122;2023-04-21T05:55:42;23.97;;;16.30;;
9508;SDS011;4792;50.088;8.122;2023-04-21T05:58:09;25.47;;;17.37;;
9508;SDS011;4792;50.088;8.122;2023-04-21T06:00:38;25.17;;;17.20;;
9508;SDS011;4792;50.088;8.122;2023-04-21T06:03:06;24.57;;;16.17;;
9508;SDS011;4792;50.088;8.122;2023-04-21T06:05:34;24.70;;;16.73;;
9508;SDS011;4792;50.088;8.122;2023-04-21T06:08:02;24.93;;;17.63;;
9508;SDS011;4792;50.088;8.122;2023-04-21T06:10:30;24.67;;;17.17;;
9508;SDS011;4792;50.088;8.122;2023-04-21T06:12:58;26.67;;;18.07;;
9508;SDS011;4792;50.088;8.122;2023-04-21T06:15:26;26.90;;;19.27;;
9508;SDS011;4792;50.088;8.122;2023-04-21T06:17:55;27.50;;;18.63;;
9508;SDS011;4792;50.088;8.122;2023-04-21T06:20:23;27.10;;;18.97;;
9508;SDS011;4792;50.088;8.122;2023-04-21T06:22:52;27.30;;;19.37;;
9508;SDS011;4792;50.088;8.122;2023-04-21T06:25:20;25.83;;;18.77;;
9508;SDS011;4792;50.088;8.122;2023-04-21T06:27:48;28.80;;;20.50;;
9508;SDS011;4792;50.088;8.122;2023-04-21T06:30:16;27.63;;;18.80;;
9508;SDS011;4792;50.088;8.122;2023-04-21T06:32:44;28.73;;;20.20;;
9508;SDS011;4792;50.088;8.122;2023-04-21T06:35:15;30.43;;;20.33;;
9508;SDS011;4792;50.088;8.122;2023-04-21T06:37:44;32.33;;;22.17;;
9508;SDS011;4792;50.088;8.122;2023-04-21T06:40:12;30.80;;;21.30;;
9508;SDS011;4792;50.088;8.122;2023-04-21T06:42:41;31.30;;;20.40;;
9508;SDS011;4792;50.088;8.122;2023-04-21T06:45:09;27.57;;;19.70;;
9508;SDS011;4792;50.088;8.122;2023-04-21T06:47:37;53.93;;;32.90;;
9508;SDS011;4792;50.088;8.122;2023-04-21T06:50:05;36.50;;;25.50;;
9508;SDS011;4792;50.088;8.122;2023-04-21T06:52:35;31.07;;;20.67;;
9508;SDS011;4792;50.088;8.122;2023-04-21T06:55:04;31.43;;;20.80;;
9508;SDS011;4792;50.088;8.122;2023-04-21T06:57:35;27.67;;;20.43;;
9508;SDS011;4792;50.088;8.122;2023-04-21T07:00:04;28.83;;;20.30;;
9508;SDS011;4792;50.088;8.122;2023-04-21T07:02:32;30.43;;;20.83;;
9508;SDS011;4792;50.088;8.122;2023-04-21T07:05:01;29.47;;;21.17;;
9508;SDS011;4792;50.088;8.122;2023-04-21T07:07:28;30.33;;;20.77;;
9508;SDS011;4792;50.088;8.122;2023-04-21T07:09:57;32.50;;;20.57;;
9508;SDS011;4792;50.088;8.122;2023-04-21T07:12:25;31.07;;;22.03;;
9508;SDS011;4792;50.088;8.122;2023-04-21T07:14:53;30.17;;;21.60;;
9508;SDS011;4792;50.088;8.122;2023-04-21T07:17:21;29.67;;;20.97;;
9508;SDS011;4792;50.088;8.122;2023-04-21T07:19:49;32.07;;;20.83;;
9508;SDS011;4792;50.088;8.122;2023-04-21T07:22:17;31.37;;;22.10;;
9508;SDS011;4792;50.088;8.122;2023-04-21T07:24:45;31.33;;;21.33;;
9508;SDS011;4792;50.088;8.122;2023-04-21T07:27:16;28.20;;;20.70;;
9508;SDS011;4792;50.088;8.122;2023-04-21T07:29:44;31.43;;;20.23;;
9508;SDS011;4792;50.088;8.122;2023-04-21T07:32:12;27.17;;;20.03;;
9508;SDS011;4792;50.088;8.122;2023-04-21T07:34:40;29.17;;;20.83;;
9508;SDS011;4792;50.088;8.122;2023-04-21T07:37:08;29.33;;;20.07;;
9508;SDS011;4792;50.088;8.122;2023-04-21T07:39:36;30.37;;;21.53;;
9508;SDS011;4792;50.088;8.122;2023-04-21T07:42:04;32.27;;;22.00;;
9508;SDS011;4792;50.088;8.122;2023-04-21T07:44:34;31.60;;;20.63;;
9508;SDS011;4792;50.088;8.122;2023-04-21T07:47:03;27.63;;;20.27;;
9508;SDS011;4792;50.088;8.122;2023-04-21T07:49:31;30.43;;;20.77;;
9508;SDS011;4792;50.088;8.122;2023-04-21T07:51:58;25.97;;;19.33;;
9508;SDS011;4792;50.088;8.122;2023-04-21T07:54:26;31.40;;;21.30;;
9508;SDS011;4792;50.088;8.122;2023-04-21T07:56:57;31.87;;;21.47;;
9508;SDS011;4792;50.088;8.122;2023-04-21T07:59:25;30.13;;;21.07;;
9508;SDS011;4792;50.088;8.122;2023-04-21T08:01:54;32.37;;;21.47;;
9508;SDS011;4792;50.088;8.122;2023-04-21T08:04:22;31.33;;;21.03;;
9508;SDS011;4792;50.088;8.122;2023-04-21T08:06:50;31.37;;;21.20;;
9508;SDS011;4792;50.088;8.122;2023-04-21T08:09:18;32.93;;;21.33;;
9508;SDS011;4792;50.088;8.122;2023-04-21T08:11:46;29.23;;;20.93;;
9508;SDS011;4792;50.088;8.122;2023-04-21T08:14:14;28.87;;;20.17;;
9508;SDS011;4792;50.088;8.122;2023-04-21T08:16:42;29.90;;;21.07;;
9508;SDS011;4792;50.088;8.122;2023-04-21T08:19:12;28.43;;;21.67;;
9508;SDS011;4792;50.088;8.122;2023-04-21T08:21:40;83.93;;;51.53;;
9508;SDS011;4792;50.088;8.122;2023-04-21T08:24:08;33.00;;;22.67;;
9508;SDS011;4792;50.088;8.122;2023-04-21T08:26:36;28.37;;;20.40;;
9508;SDS011;4792;50.088;8.122;2023-04-21T08:29:04;32.17;;;21.40;;
9508;SDS011;4792;50.088;8.122;2023-04-21T08:31:32;29.40;;;21.13;;
9508;SDS011;4792;50.088;8.122;2023-04-21T08:34:00;29.73;;;21.40;;
9508;SDS011;4792;50.088;8.122;2023-04-21T08:36:29;28.30;;;19.73;;
9508;SDS011;4792;50.088;8.122;2023-04-21T08:38:58;25.20;;;19.37;;
9508;SDS011;4792;50.088;8.122;2023-04-21T08:41:26;24.93;;;18.40;;
9508;SDS011;4792;50.088;8.122;2023-04-21T08:43:54;23.00;;;17.70;;
9508;SDS011;4792;50.088;8.122;2023-04-21T08:46:22;22.40;;;16.87;;
9508;SDS011;4792;50.088;8.122;2023-04-21T08:48:51;20.70;;;15.03;;
9508;SDS011;4792;50.088;8.122;2023-04-21T08:51:26;17.10;;;13.53;;
9508;SDS011;4792;50.088;8.122;2023-04-21T08:53:56;20.73;;;15.43;;
9508;SDS011;4792;50.088;8.122;2023-04-21T08:56:24;20.70;;;15.27;;
9508;SDS011;4792;50.088;8.122;2023-04-21T08:58:52;21.83;;;15.70;;
9508;SDS011;4792;50.088;8.122;2023-04-21T09:01:20;19.33;;;13.97;;
9508;SDS011;4792;50.088;8.122;2023-04-21T09:03:48;22.37;;;15.67;;
9508;SDS011;4792;50.088;8.122;2023-04-21T09:06:16;19.17;;;14.80;;
9508;SDS011;4792;50.088;8.122;2023-04-21T09:08:51;19.33;;;14.90;;
9508;SDS011;4792;50.088;8.122;2023-04-21T09:11:22;20.33;;;14.90;;
9508;SDS011;4792;50.088;8.122;2023-04-21T09:13:51;17.37;;;14.50;;
9508;SDS011;4792;50.088;8.122;2023-04-21T09:16:23;20.90;;;15.10;;
9508;SDS011;4792;50.088;8.122;2023-04-21T09:18:51;20.53;;;15.07;;
9508;SDS011;4792;50.088;8.122;2023-04-21T09:21:19;19.73;;;15.50;;
9508;SDS011;4792;50.088;8.122;2023-04-21T09:23:48;19.10;;;15.27;;
9508;SDS011;4792;50.088;8.122;2023-04-21T09:26:17;22.10;;;15.40;;
9508;SDS011;4792;50.088;8.122;2023-04-21T09:28:50;20.73;;;14.57;;
9508;SDS011;4792;50.088;8.122;2023-04-21T09:31:19;18.70;;;13.43;;
9508;SDS011;4792;50.088;8.122;2023-04-21T09:33:51;19.00;;;14.40;;
9508;SDS011;4792;50.088;8.122;2023-04-21T09:36:26;17.40;;;14.07;;
9508;SDS011;4792;50.088;8.122;2023-04-21T09:38:57;20.70;;;15.90;;
9508;SDS011;4792;50.088;8.122;2023-04-21T09:41:29;21.20;;;15.40;;
9508;SDS011;4792;50.088;8.122;2023-04-21T09:43:58;20.03;;;15.40;;
9508;SDS011;4792;50.088;8.122;2023-04-21T09:46:31;19.47;;;15.13;;
9508;SDS011;4792;50.088;8.122;2023-04-21T09:49:00;21.70;;;16.10;;
9508;SDS011;4792;50.088;8.122;2023-04-21T09:51:29;27.03;;;16.93;;
9508;SDS011;4792;50.088;8.122;2023-04-21T09:54:18;19.47;;;14.47;;
9508;SDS011;4792;50.088;8.122;2023-04-21T09:56:52;20.53;;;16.47;;
9508;SDS011;4792;50.088;8.122;2023-04-21T09:59:24;20.40;;;16.43;;
9508;SDS011;4792;50.088;8.122;2023-04-21T10:01:52;22.17;;;15.93;;
9508;SDS011;4792;50.088;8.122;2023-04-21T10:04:22;22.63;;;16.17;;
9508;SDS011;4792;50.088;8.122;2023-04-21T10:06:52;19.43;;;14.67;;
9508;SDS011;4792;50.088;8.122;2023-04-21T10:09:21;22.10;;;16.37;;
9508;SDS011;4792;50.088;8.122;2023-04-21T10:11:50;20.67;;;16.97;;
9508;SDS011;4792;50.088;8.122;2023-04-21T10:14:18;20.03;;;15.83;;
9508;SDS011;4792;50.088;8.122;2023-04-21T10:16:55;18.30;;;15.10;;
9508;SDS011;4792;50.088;8.122;2023-04-21T10:19:24;17.57;;;14.30;;
9508;SDS011;4792;50.088;8.122;2023-04-21T10:21:54;18.93;;;15.43;;
9508;SDS011;4792;50.088;8.122;2023-04-21T10:24:22;22.53;;;16.53;;
9508;SDS011;4792;50.088;8.122;2023-04-21T10:26:50;26.40;;;15.90;;
9508;SDS011;4792;50.088;8.122;2023-04-21T10:29:27;19.00;;;15.40;;
9508;SDS011;4792;50.088;8.122;2023-04-21T10:32:10;20.83;;;14.17;;
9508;SDS011;4792;50.088;8.122;2023-04-21T10:34:38;20.27;;;13.30;;
9508;SDS011;4792;50.088;8.122;2023-04-21T10:37:15;20.07;;;15.77;;
9508;SDS011;4792;50.088;8.122;2023-04-21T10:39:54;21.67;;;16.67;;
9508;SDS011;4792;50.088;8.122;2023-04-21T10:42:29;18.70;;;15.40;;
9508;SDS011;4792;50.088;8.122;2023-04-21T10:45:06;22.83;;;16.40;;
9508;SDS011;4792;50.088;8.122;2023-04-21T10:47:37;25.97;;;18.80;;
9508;SDS011;4792;50.088;8.122;2023-04-21T10:50:18;21.90;;;16.93;;
9508;SDS011;4792;50.088;8.122;2023-04-21T10:52:51;19.10;;;15.90;;
9508;SDS011;4792;50.088;8.122;2023-04-21T10:55:21;21.90;;;16.03;;
9508;SDS011;4792;50.088;8.122;2023-04-21T10:57:52;22.60;;;16.77;;
9508;SDS011;4792;50.088;8.122;2023-04-21T11:00:20;19.43;;;15.77;;
9508;SDS011;4792;50.088;8.122;2023-04-21T11:02:54;19.43;;;14.40;;
9508;SDS011;4792;50.088;8.122;2023-04-21T11:05:26;18.23;;;14.53;;
9508;SDS011;4792;50.088;8.122;2023-04-21T11:08:01;20.97;;;16.87;;
9508;SDS011;4792;50.088;8.122;2023-04-21T11:10:40;23.30;;;18.07;;
9508;SDS011;4792;50.088;8.122;2023-04-21T11:13:08;18.77;;;14.97;;
9508;SDS011;4792;50.088;8.122;2023-04-21T11:15:36;18.60;;;14.53;;
9508;SDS011;4792;50.088;8.122;2023-04-21T11:18:06;17.23;;;13.77;;
9508;SDS011;4792;50.088;8.122;2023-04-21T11:20:34;19.33;;;15.27;;
9508;SDS011;4792;50.088;8.122;2023-04-21T11:23:06;19.17;;;15.23;;
9508;SDS011;4792;50.088;8.122;2023-04-21T11:25:34;19.27;;;14.30;;
9508;SDS011;4792;50.088;8.122;2023-04-21T11:28:02;18.83;;;13.97;;
9508;SDS011;4792;50.088;8.122;2023-04-21T11:30:31;17.30;;;13.00;;
9508;SDS011;4792;50.088;8.122;2023-04-21T11:33:00;15.50;;;12.87;;
9508;SDS011;4792;50.088;8.122;2023-04-21T11:35:29;20.10;;;14.73;;
9508;SDS011;4792;50.088;8.122;2023-04-21T11:37:57;19.23;;;14.53;;
9508;SDS011;4792;50.088;8.122;2023-04-21T11:40:25;20.20;;;14.37;;
9508;SDS011;4792;50.088;8.122;2023-04-21T11:42:53;18.77;;;15.50;;
9508;SDS011;4792;50.088;8.122;2023-04-21T11:45:21;19.03;;;14.97;;
9508;SDS011;4792;50.088;8.122;2023-04-21T11:47:49;15.43;;;12.87;;
9508;SDS011;4792;50.088;8.122;2023-04-21T11:50:29;15.80;;;13.17;;
9508;SDS011;4792;50.088;8.122;2023-04-21T11:52:58;20.93;;;15.90;;
9508;SDS011;4792;50.088;8.122;2023-04-21T11:55:28;17.33;;;14.27;;
9508;SDS011;4792;50.088;8.122;2023-04-21T11:57:56;19.17;;;15.47;;
9508;SDS011;4792;50.088;8.122;2023-04-21T12:00:28;18.73;;;15.33;;
9508;SDS011;4792;50.088;8.122;2023-04-21T12:02:56;18.37;;;14.60;;
9508;SDS011;4792;50.088;8.122;2023-04-21T12:05:33;20.47;;;15.33;;
9508;SDS011;4792;50.088;8.122;2023-04-21T12:08:02;19.80;;;16.37;;
9508;SDS011;4792;50.088;8.122;2023-04-21T12:10:31;18.83;;;14.27;;
9508;SDS011;4792;50.088;8.122;2023-04-21T12:12:59;17.57;;;14.40;;
9508;SDS011;4792;50.088;8.122;2023-04-21T12:15:27;18.07;;;15.50;;
9508;SDS011;4792;50.088;8.122;2023-04-21T12:17:56;18.67;;;14.03;;
9508;SDS011;4792;50.088;8.122;2023-04-21T12:20:24;15.57;;;12.23;;
9508;SDS011;4792;50.088;8.122;2023-04-21T12:22:57;17.93;;;14.60;;
9508;SDS011;4792;50.088;8.122;2023-04-21T12:25:26;15.67;;;13.43;;
9508;SDS011;4792;50.088;8.122;2023-04-21T12:27:56;17.97;;;14.30;;
9508;SDS011;4792;50.088;8.122;2023-04-21T12:30:25;16.60;;;13.73;;
9508;SDS011;4792;50.088;8.122;2023-04-21T12:32:52;19.20;;;13.57;;
9508;SDS011;4792;50.088;8.122;2023-04-21T12:35:21;19.10;;;14.40;;
9508;SDS011;4792;50.088;8.122;2023-04-21T12:37:49;18.60;;;14.03;;
9508;SDS011;4792;50.088;8.122;2023-04-21T12:40:18;15.47;;;12.60;;
9508;SDS011;4792;50.088;8.122;2023-04-21T12:42:46;15.00;;;12.60;;
9508;SDS011;4792;50.088;8.122;2023-04-21T12:45:14;13.43;;;11.97;;
9508;SDS011;4792;50.088;8.122;2023-04-21T12:47:42;19.73;;;15.20;;
9508;SDS011;4792;50.088;8.122;2023-04-21T12:50:12;14.60;;;13.10;;
9508;SDS011;4792;50.088;8.122;2023-04-21T12:52:40;17.10;;;13.10;;
9508;SDS011;4792;50.088;8.122;2023-04-21T12:55:08;18.60;;;13.90;;
9508;SDS011;4792;50.088;8.122;2023-04-21T12:57:37;18.57;;;14.20;;
9508;SDS011;4792;50.088;8.122;2023-04-21T13:00:05;17.20;;;13.30;;
9508;SDS011;4792;50.088;8.122;2023-04-21T13:02:37;16.50;;;13.07;;
9508;SDS011;4792;50.088;8.122;2023-04-21T13:05:05;14.27;;;12.77;;
9508;SDS011;4792;50.088;8.122;2023-04-21T13:07:35;15.53;;;12.90;;
9508;SDS011;4792;50.088;8.122;2023-04-21T13:10:03;15.37;;;13.00;;
9508;SDS011;4792;50.088;8.122;2023-04-21T13:12:32;13.97;;;11.80;;
9508;SDS011;4792;50.088;8.122;2023-04-21T13:15:01;15.27;;;11.87;;
9508;SDS011;4792;50.088;8.122;2023-04-21T13:17:29;13.87;;;10.80;;
9508;SDS011;4792;50.088;8.122;2023-04-21T13:19:57;13.10;;;11.70;;
9508;SDS011;4792;50.088;8.122;2023-04-21T13:22:25;11.07;;;9.83;;
9508;SDS011;4792;50.088;8.122;2023-04-21T13:24:53;12.53;;;10.73;;
9508;SDS011;4792;50.088;8.122;2023-04-21T13:27:21;14.03;;;12.60;;
9508;SDS011;4792;50.088;8.122;2023-04-21T13:29:49;16.83;;;12.70;;
9508;SDS011;4792;50.088;8.122;2023-04-21T13:32:19;16.90;;;13.07;;
9508;SDS011;4792;50.088;8.122;2023-04-21T13:34:47;14.47;;;11.43;;
9508;SDS011;4792;50.088;8.122;2023-04-21T13:37:14;12.67;;;11.00;;
9508;SDS011;4792;50.088;8.122;2023-04-21T13:39:42;14.83;;;11.77;;
9508;SDS011;4792;50.088;8.122;2023-04-21T13:42:10;14.60;;;11.87;;
9508;SDS011;4792;50.088;8.122;2023-04-21T13:44:38;14.27;;;12.00;;
9508;SDS011;4792;50.088;8.122;2023-04-21T13:47:06;14.33;;;11.97;;
9508;SDS011;4792;50.088;8.122;2023-04-21T13:49:36;13.40;;;12.03;;
9508;SDS011;4792;50.088;8.122;2023-04-21T13:52:04;14.27;;;12.77;;
9508;SDS011;4792;50.088;8.122;2023-04-21T13:54:32;14.23;;;11.63;;
9508;SDS011;4792;50.088;8.122;2023-04-21T13:57:00;15.83;;;14.00;;
9508;SDS011;4792;50.088;8.122;2023-04-21T13:59:28;14.23;;;12.40;;
9508;SDS011;4792;50.088;8.122;2023-04-21T14:01:56;12.57;;;11.27;;
9508;SDS011;4792;50.088;8.122;2023-04-21T14:04:24;12.10;;;10.33;;
9508;SDS011;4792;50.088;8.122;2023-04-21T14:06:53;14.00;;;11.20;;
9508;SDS011;4792;50.088;8.122;2023-04-21T14:09:22;14.03;;;10.67;;
9508;SDS011;4792;50.088;8.122;2023-04-21T14:11:49;13.80;;;10.93;;
9508;SDS011;4792;50.088;8.122;2023-04-21T14:14:17;17.10;;;12.63;;
9508;SDS011;4792;50.088;8.122;2023-04-21T14:17:03;13.20;;;10.93;;
9508;SDS011;4792;50.088;8.122;2023-04-21T14:19:31;12.73;;;11.23;;
9508;SDS011;4792;50.088;8.122;2023-04-21T14:22:01;11.80;;;10.50;;
9508;SDS011;4792;50.088;8.122;2023-04-21T14:24:29;14.53;;;10.70;;
9508;SDS011;4792;50.088;8.122;2023-04-21T14:26:57;13.80;;;11.57;;
9508;SDS011;4792;50.088;8.122;2023-04-21T14:29:25;17.57;;;13.27;;
9508;SDS011;4792;50.088;8.122;2023-04-21T14:31:53;12.70;;;10.67;;
9508;SDS011;4792;50.088;8.122;2023-04-21T14:34:23;14.20;;;11.60;;
9508;SDS011;4792;50.088;8.122;2023-04-21T14:36:51;13.53;;;10.70;;
9508;SDS011;4792;50.088;8.122;2023-04-21T14:39:21;11.37;;;10.23;;
9508;SDS011;4792;50.088;8.122;2023-04-21T14:41:49;12.40;;;11.10;;
9508;SDS011;4792;50.088;8.122;2023-04-21T14:44:16;11.13;;;9.83;;
9508;SDS011;4792;50.088;8.122;2023-04-21T14:46:45;12.40;;;10.87;;
9508;SDS011;4792;50.088;8.122;2023-04-21T14:49:26;11.70;;;10.27;;
9508;SDS011;4792;50.088;8.122;2023-04-21T14:51:54;12.23;;;10.63;;
9508;SDS011;4792;50.088;8.122;2023-04-21T14:54:23;12.10;;;10.73;;
9508;SDS011;4792;50.088;8.122;2023-04-21T14:56:51;13.33;;;10.43;;
9508;SDS011;4792;50.088;8.122;2023-04-21T14:59:36;11.73;;;9.77;;